sensor_id;sensor_type;location;lat;lon;timestamp;P1;durP1;ratioP1;P2;durP2;ratioP2
1651;SDS011;823;49.028;8.454;2023-05-10T00:03:45;3.77;;;1.27;;
1651;SDS011;823;49.028;8.454;2023-05-10T00:08:45;1.37;;;1.20;;
1651;SDS011;823;49.028;8.454;2023-05-10T00:13:45;1.15;;;1.00;;
1651;SDS011;823;49.028;8.454;2023-05-10T00:18:46;1.50;;;0.97;;
1651;SDS011;823;49.028;8.454;2023-05-10T00:23:46;1.33;;;1.00;;
1651;SDS011;823;49.028;8.454;2023-05-10T00:28:46;2.75;;;1.10;;
1651;SDS011;823;49.028;8.454;2023-05-10T00:33:47;1.30;;;1.20;;
1651;SDS011;823;49.028;8.454;2023-05-10T00:38:47;1.20;;;1.00;;
1651;SDS011;823;49.028;8.454;2023-05-10T00:43:48;1.30;;;1.20;;
1651;SDS011;823;49.028;8.454;2023-05-10T00:48:48;1.10;;;0.80;;
1651;SDS011;823;49.028;8.454;2023-05-10T00:53:49;6.17;;;1.23;;
1651;SDS011;823;49.028;8.454;2023-05-10T00:58:50;2.10;;;1.17;;
1651;SDS011;823;49.028;8.454;2023-05-10T01:03:50;1.20;;;1.00;;
1651;SDS011;823;49.028;8.454;2023-05-10T01:08:51;2.10;;;1.30;;
1651;SDS011;823;49.028;8.454;2023-05-10T01:13:52;1.60;;;1.27;;
1651;SDS011;823;49.028;8.454;2023-05-10T01:18:56;1.60;;;1.50;;
1651;SDS011;823;49.028;8.454;2023-05-10T01:24:06;3.30;;;1.50;;
1651;SDS011;823;49.028;8.454;2023-05-10T01:34:35;6.60;;;1.60;;
1651;SDS011;823;49.028;8.454;2023-05-10T01:39:46;1.60;;;1.47;;
1651;SDS011;823;49.028;8.454;2023-05-10T01:50:03;2.80;;;2.20;;
1651;SDS011;823;49.028;8.454;2023-05-10T01:55:07;2.93;;;2.00;;
1651;SDS011;823;49.028;8.454;2023-05-10T02:00:11;2.90;;;2.00;;
1651;SDS011;823;49.028;8.454;2023-05-10T02:05:14;3.60;;;2.43;;
1651;SDS011;823;49.028;8.454;2023-05-10T02:10:16;3.00;;;2.40;;
1651;SDS011;823;49.028;8.454;2023-05-10T02:15:18;3.70;;;2.53;;
1651;SDS011;823;49.028;8.454;2023-05-10T02:20:22;5.87;;;2.37;;
1651;SDS011;823;49.028;8.454;2023-05-10T02:25:24;4.47;;;2.93;;
1651;SDS011;823;49.028;8.454;2023-05-10T02:30:26;7.63;;;3.00;;
1651;SDS011;823;49.028;8.454;2023-05-10T02:35:27;4.53;;;3.10;;
1651;SDS011;823;49.028;8.454;2023-05-10T02:40:28;4.73;;;2.93;;
1651;SDS011;823;49.028;8.454;2023-05-10T02:45:30;5.90;;;4.03;;
1651;SDS011;823;49.028;8.454;2023-05-10T02:50:32;9.33;;;3.67;;
1651;SDS011;823;49.028;8.454;2023-05-10T02:55:35;6.60;;;3.70;;
1651;SDS011;823;49.028;8.454;2023-05-10T03:00:37;6.53;;;4.03;;
1651;SDS011;823;49.028;8.454;2023-05-10T03:05:38;6.53;;;4.03;;
1651;SDS011;823;49.028;8.454;2023-05-10T03:10:41;5.63;;;3.33;;
1651;SDS011;823;49.028;8.454;2023-05-10T03:16:03;6.80;;;4.30;;
1651;SDS011;823;49.028;8.454;2023-05-10T03:21:11;9.90;;;4.00;;
1651;SDS011;823;49.028;8.454;2023-05-10T03:26:15;6.10;;;3.70;;
1651;SDS011;823;49.028;8.454;2023-05-10T03:31:20;4.47;;;3.70;;
1651;SDS011;823;49.028;8.454;2023-05-10T03:36:21;5.10;;;3.43;;
1651;SDS011;823;49.028;8.454;2023-05-10T03:41:21;5.70;;;4.50;;
1651;SDS011;823;49.028;8.454;2023-05-10T03:46:21;6.10;;;4.03;;
1651;SDS011;823;49.028;8.454;2023-05-10T03:51:22;5.67;;;3.93;;
1651;SDS011;823;49.028;8.454;2023-05-10T03:56:22;7.83;;;3.47;;
1651;SDS011;823;49.028;8.454;2023-05-10T04:01:22;4.82;;;3.50;;
1651;SDS011;823;49.028;8.454;2023-05-10T04:06:23;4.68;;;3.10;;
1651;SDS011;823;49.028;8.454;2023-05-10T04:11:23;5.40;;;3.20;;
1651;SDS011;823;49.028;8.454;2023-05-10T04:16:24;4.87;;;3.03;;
1651;SDS011;823;49.028;8.454;2023-05-10T04:21:25;3.88;;;2.83;;
1651;SDS011;823;49.028;8.454;2023-05-10T04:26:25;3.73;;;3.07;;
1651;SDS011;823;49.028;8.454;2023-05-10T04:31:25;4.10;;;2.80;;
1651;SDS011;823;49.028;8.454;2023-05-10T04:36:27;5.17;;;2.70;;
1651;SDS011;823;49.028;8.454;2023-05-10T04:41:28;4.53;;;2.70;;
1651;SDS011;823;49.028;8.454;2023-05-10T04:46:29;6.67;;;3.50;;
1651;SDS011;823;49.028;8.454;2023-05-10T04:51:29;5.43;;;2.97;;
1651;SDS011;823;49.028;8.454;2023-05-10T04:56:31;3.80;;;2.80;;
1651;SDS011;823;49.028;8.454;2023-05-10T05:01:31;5.93;;;3.60;;
1651;SDS011;823;49.028;8.454;2023-05-10T05:06:32;6.03;;;3.80;;
1651;SDS011;823;49.028;8.454;2023-05-10T05:11:32;5.97;;;3.33;;
1651;SDS011;823;49.028;8.454;2023-05-10T05:16:32;7.03;;;3.33;;
1651;SDS011;823;49.028;8.454;2023-05-10T05:21:33;8.68;;;4.10;;
1651;SDS011;823;49.028;8.454;2023-05-10T05:26:33;5.97;;;3.20;;
1651;SDS011;823;49.028;8.454;2023-05-10T05:31:33;5.37;;;3.90;;
1651;SDS011;823;49.028;8.454;2023-05-10T05:36:35;7.35;;;4.25;;
1651;SDS011;823;49.028;8.454;2023-05-10T05:41:40;12.17;;;4.33;;
1651;SDS011;823;49.028;8.454;2023-05-10T05:46:41;5.27;;;3.60;;
1651;SDS011;823;49.028;8.454;2023-05-10T05:51:41;6.57;;;3.70;;
1651;SDS011;823;49.028;8.454;2023-05-10T05:56:41;5.63;;;3.60;;
1651;SDS011;823;49.028;8.454;2023-05-10T06:01:42;6.37;;;3.40;;
1651;SDS011;823;49.028;8.454;2023-05-10T06:06:42;6.75;;;2.95;;
1651;SDS011;823;49.028;8.454;2023-05-10T06:11:42;5.00;;;2.50;;
1651;SDS011;823;49.028;8.454;2023-05-10T06:16:43;5.60;;;2.17;;
1651;SDS011;823;49.028;8.454;2023-05-10T06:21:43;2.70;;;2.00;;
1651;SDS011;823;49.028;8.454;2023-05-10T06:26:43;2.40;;;1.97;;
1651;SDS011;823;49.028;8.454;2023-05-10T06:31:44;2.10;;;1.70;;
1651;SDS011;823;49.028;8.454;2023-05-10T06:36:44;2.90;;;2.20;;
1651;SDS011;823;49.028;8.454;2023-05-10T06:41:45;3.30;;;1.83;;
1651;SDS011;823;49.028;8.454;2023-05-10T06:46:45;2.37;;;1.67;;
1651;SDS011;823;49.028;8.454;2023-05-10T06:51:46;2.87;;;2.07;;
1651;SDS011;823;49.028;8.454;2023-05-10T06:56:46;2.07;;;1.37;;
1651;SDS011;823;49.028;8.454;2023-05-10T07:01:46;2.47;;;1.60;;
1651;SDS011;823;49.028;8.454;2023-05-10T07:06:47;3.13;;;1.57;;
1651;SDS011;823;49.028;8.454;2023-05-10T07:11:49;3.80;;;1.13;;
1651;SDS011;823;49.028;8.454;2023-05-10T07:16:49;2.10;;;1.40;;
1651;SDS011;823;49.028;8.454;2023-05-10T07:21:50;1.55;;;1.13;;
1651;SDS011;823;49.028;8.454;2023-05-10T07:26:50;1.83;;;1.33;;
1651;SDS011;823;49.028;8.454;2023-05-10T07:31:51;2.63;;;1.23;;
1651;SDS011;823;49.028;8.454;2023-05-10T07:36:51;4.00;;;1.47;;
1651;SDS011;823;49.028;8.454;2023-05-10T07:41:52;1.30;;;0.80;;
1651;SDS011;823;49.028;8.454;2023-05-10T07:46:52;1.40;;;0.90;;
1651;SDS011;823;49.028;8.454;2023-05-10T07:51:53;2.07;;;1.00;;
1651;SDS011;823;49.028;8.454;2023-05-10T07:56:53;1.60;;;1.15;;
1651;SDS011;823;49.028;8.454;2023-05-10T08:01:53;3.63;;;1.07;;
1651;SDS011;823;49.028;8.454;2023-05-10T08:06:54;2.22;;;1.02;;
1651;SDS011;823;49.028;8.454;2023-05-10T08:11:54;1.77;;;0.87;;
1651;SDS011;823;49.028;8.454;2023-05-10T08:16:55;1.40;;;0.77;;
1651;SDS011;823;49.028;8.454;2023-05-10T08:21:56;1.30;;;0.90;;
1651;SDS011;823;49.028;8.454;2023-05-10T08:26:57;3.40;;;1.37;;
1651;SDS011;823;49.028;8.454;2023-05-10T08:31:57;2.50;;;0.63;;
1651;SDS011;823;49.028;8.454;2023-05-10T08:36:57;1.20;;;0.90;;
1651;SDS011;823;49.028;8.454;2023-05-10T08:41:58;1.40;;;0.83;;
1651;SDS011;823;49.028;8.454;2023-05-10T08:47:06;2.50;;;1.03;;
1651;SDS011;823;49.028;8.454;2023-05-10T08:52:08;1.20;;;0.90;;
1651;SDS011;823;49.028;8.454;2023-05-10T08:57:13;1.60;;;0.83;;
1651;SDS011;823;49.028;8.454;2023-05-10T09:02:13;1.33;;;0.77;;
1651;SDS011;823;49.028;8.454;2023-05-10T09:07:13;1.93;;;1.00;;
1651;SDS011;823;49.028;8.454;2023-05-10T09:12:14;1.33;;;0.87;;
1651;SDS011;823;49.028;8.454;2023-05-10T09:17:16;11.83;;;1.33;;
1651;SDS011;823;49.028;8.454;2023-05-10T09:22:16;1.77;;;0.80;;
1651;SDS011;823;49.028;8.454;2023-05-10T09:27:17;1.00;;;0.70;;
1651;SDS011;823;49.028;8.454;2023-05-10T09:32:39;3.50;;;0.80;;
1651;SDS011;823;49.028;8.454;2023-05-10T09:37:42;8.23;;;0.90;;
1651;SDS011;823;49.028;8.454;2023-05-10T09:48:08;0.90;;;0.40;;
1651;SDS011;823;49.028;8.454;2023-05-10T09:53:08;2.67;;;0.70;;
1651;SDS011;823;49.028;8.454;2023-05-10T09:58:09;1.00;;;0.70;;
1651;SDS011;823;49.028;8.454;2023-05-10T10:03:14;1.43;;;0.70;;
1651;SDS011;823;49.028;8.454;2023-05-10T10:08:17;2.80;;;0.70;;
1651;SDS011;823;49.028;8.454;2023-05-10T10:13:17;1.27;;;0.50;;
1651;SDS011;823;49.028;8.454;2023-05-10T10:18:18;2.93;;;0.97;;
1651;SDS011;823;49.028;8.454;2023-05-10T10:23:23;1.23;;;0.70;;
1651;SDS011;823;49.028;8.454;2023-05-10T10:28:32;2.17;;;1.00;;
1651;SDS011;823;49.028;8.454;2023-05-10T10:33:51;2.13;;;1.00;;
1651;SDS011;823;49.028;8.454;2023-05-10T10:39:00;1.93;;;0.97;;
1651;SDS011;823;49.028;8.454;2023-05-10T10:54:50;2.70;;;1.27;;
1651;SDS011;823;49.028;8.454;2023-05-10T10:59:51;4.83;;;1.27;;
1651;SDS011;823;49.028;8.454;2023-05-10T11:11:02;5.70;;;1.40;;
1651;SDS011;823;49.028;8.454;2023-05-10T11:21:11;2.70;;;1.57;;
1651;SDS011;823;49.028;8.454;2023-05-10T11:26:11;3.43;;;1.97;;
1651;SDS011;823;49.028;8.454;2023-05-10T11:31:16;4.87;;;1.10;;
1651;SDS011;823;49.028;8.454;2023-05-10T11:36:18;2.30;;;1.10;;
1651;SDS011;823;49.028;8.454;2023-05-10T11:41:23;1.80;;;1.03;;
1651;SDS011;823;49.028;8.454;2023-05-10T11:46:26;6.80;;;1.53;;
1651;SDS011;823;49.028;8.454;2023-05-10T11:51:28;1.30;;;1.20;;
1651;SDS011;823;49.028;8.454;2023-05-10T11:56:28;1.90;;;0.70;;
1651;SDS011;823;49.028;8.454;2023-05-10T12:01:28;5.70;;;0.77;;
1651;SDS011;823;49.028;8.454;2023-05-10T12:06:30;4.17;;;0.83;;
1651;SDS011;823;49.028;8.454;2023-05-10T12:11:32;2.20;;;0.90;;
1651;SDS011;823;49.028;8.454;2023-05-10T12:16:32;0.97;;;0.50;;
1651;SDS011;823;49.028;8.454;2023-05-10T12:21:32;1.95;;;0.60;;
1651;SDS011;823;49.028;8.454;2023-05-10T12:26:33;1.10;;;0.80;;
1651;SDS011;823;49.028;8.454;2023-05-10T12:31:48;1.40;;;0.73;;
1651;SDS011;823;49.028;8.454;2023-05-10T12:36:51;2.70;;;0.70;;
1651;SDS011;823;49.028;8.454;2023-05-10T12:41:52;1.07;;;0.83;;
1651;SDS011;823;49.028;8.454;2023-05-10T12:46:52;2.43;;;0.83;;
1651;SDS011;823;49.028;8.454;2023-05-10T12:51:53;2.85;;;0.80;;
1651;SDS011;823;49.028;8.454;2023-05-10T12:56:53;3.63;;;1.20;;
1651;SDS011;823;49.028;8.454;2023-05-10T13:01:53;2.03;;;1.10;;
1651;SDS011;823;49.028;8.454;2023-05-10T13:06:54;4.70;;;0.90;;
1651;SDS011;823;49.028;8.454;2023-05-10T13:11:58;3.97;;;0.93;;
1651;SDS011;823;49.028;8.454;2023-05-10T13:16:58;1.90;;;0.77;;
1651;SDS011;823;49.028;8.454;2023-05-10T13:21:59;2.70;;;0.90;;
1651;SDS011;823;49.028;8.454;2023-05-10T13:26:59;1.00;;;0.50;;
1651;SDS011;823;49.028;8.454;2023-05-10T13:32:00;2.07;;;0.60;;
1651;SDS011;823;49.028;8.454;2023-05-10T13:37:00;1.50;;;0.60;;
1651;SDS011;823;49.028;8.454;2023-05-10T13:42:01;2.00;;;0.60;;
1651;SDS011;823;49.028;8.454;2023-05-10T13:47:02;2.30;;;0.90;;
1651;SDS011;823;49.028;8.454;2023-05-10T13:52:03;1.02;;;0.60;;
1651;SDS011;823;49.028;8.454;2023-05-10T13:57:06;4.10;;;0.80;;
1651;SDS011;823;49.028;8.454;2023-05-10T14:02:07;1.00;;;0.70;;
1651;SDS011;823;49.028;8.454;2023-05-10T14:07:07;65.77;;;4.63;;
1651;SDS011;823;49.028;8.454;2023-05-10T14:12:08;2.67;;;0.90;;
1651;SDS011;823;49.028;8.454;2023-05-10T14:17:08;2.15;;;0.65;;
1651;SDS011;823;49.028;8.454;2023-05-10T14:22:08;2.25;;;0.50;;
1651;SDS011;823;49.028;8.454;2023-05-10T14:27:08;5.07;;;0.73;;
1651;SDS011;823;49.028;8.454;2023-05-10T14:32:09;1.65;;;0.50;;
1651;SDS011;823;49.028;8.454;2023-05-10T14:37:10;1.87;;;0.70;;
1651;SDS011;823;49.028;8.454;2023-05-10T14:42:14;1.53;;;0.70;;
1651;SDS011;823;49.028;8.454;2023-05-10T14:47:14;1.33;;;0.60;;
1651;SDS011;823;49.028;8.454;2023-05-10T14:52:15;1.00;;;0.60;;
1651;SDS011;823;49.028;8.454;2023-05-10T14:57:15;1.20;;;0.80;;
1651;SDS011;823;49.028;8.454;2023-05-10T15:02:16;3.13;;;0.60;;
1651;SDS011;823;49.028;8.454;2023-05-10T15:07:16;1.10;;;0.60;;
1651;SDS011;823;49.028;8.454;2023-05-10T15:12:18;5.00;;;0.80;;
1651;SDS011;823;49.028;8.454;2023-05-10T15:17:18;78.03;;;2.83;;
1651;SDS011;823;49.028;8.454;2023-05-10T15:22:19;2.50;;;0.60;;
1651;SDS011;823;49.028;8.454;2023-05-10T15:27:19;1.80;;;0.67;;
1651;SDS011;823;49.028;8.454;2023-05-10T15:32:19;2.97;;;0.70;;
1651;SDS011;823;49.028;8.454;2023-05-10T15:37:20;2.83;;;1.30;;
1651;SDS011;823;49.028;8.454;2023-05-10T15:42:21;2.80;;;0.70;;
1651;SDS011;823;49.028;8.454;2023-05-10T15:47:21;2.90;;;0.77;;
1651;SDS011;823;49.028;8.454;2023-05-10T15:52:22;0.90;;;0.50;;
1651;SDS011;823;49.028;8.454;2023-05-10T15:57:23;1.30;;;0.50;;
1651;SDS011;823;49.028;8.454;2023-05-10T16:02:23;0.87;;;0.50;;
1651;SDS011;823;49.028;8.454;2023-05-10T16:07:23;1.20;;;0.60;;
1651;SDS011;823;49.028;8.454;2023-05-10T16:12:24;1.00;;;0.50;;
1651;SDS011;823;49.028;8.454;2023-05-10T16:17:24;0.93;;;0.50;;
1651;SDS011;823;49.028;8.454;2023-05-10T16:22:25;5.00;;;0.80;;
1651;SDS011;823;49.028;8.454;2023-05-10T16:27:28;0.80;;;0.50;;
1651;SDS011;823;49.028;8.454;2023-05-10T16:32:29;1.00;;;0.50;;
1651;SDS011;823;49.028;8.454;2023-05-10T16:37:29;2.35;;;0.60;;
1651;SDS011;823;49.028;8.454;2023-05-10T16:42:29;0.90;;;0.50;;
1651;SDS011;823;49.028;8.454;2023-05-10T16:47:30;0.80;;;0.50;;
1651;SDS011;823;49.028;8.454;2023-05-10T16:52:30;6.05;;;0.50;;
1651;SDS011;823;49.028;8.454;2023-05-10T16:57:31;1.83;;;0.60;;
1651;SDS011;823;49.028;8.454;2023-05-10T17:02:32;19.60;;;1.63;;
1651;SDS011;823;49.028;8.454;2023-05-10T17:07:32;1.23;;;0.55;;
1651;SDS011;823;49.028;8.454;2023-05-10T17:12:32;2.83;;;0.40;;
1651;SDS011;823;49.028;8.454;2023-05-10T17:17:33;1.00;;;0.50;;
1651;SDS011;823;49.028;8.454;2023-05-10T17:22:34;0.80;;;0.40;;
1651;SDS011;823;49.028;8.454;2023-05-10T17:27:34;1.37;;;0.50;;
1651;SDS011;823;49.028;8.454;2023-05-10T17:32:34;1.67;;;0.47;;
1651;SDS011;823;49.028;8.454;2023-05-10T17:37:35;1.60;;;0.50;;
1651;SDS011;823;49.028;8.454;2023-05-10T17:42:35;1.30;;;0.47;;
1651;SDS011;823;49.028;8.454;2023-05-10T17:47:35;1.10;;;0.50;;
1651;SDS011;823;49.028;8.454;2023-05-10T17:52:36;2.03;;;0.50;;
1651;SDS011;823;49.028;8.454;2023-05-10T17:57:36;2.83;;;0.63;;
1651;SDS011;823;49.028;8.454;2023-05-10T18:02:37;2.50;;;0.73;;
1651;SDS011;823;49.028;8.454;2023-05-10T18:07:37;3.53;;;0.50;;
1651;SDS011;823;49.028;8.454;2023-05-10T18:12:38;0.90;;;0.60;;
1651;SDS011;823;49.028;8.454;2023-05-10T18:17:39;1.50;;;0.70;;
1651;SDS011;823;49.028;8.454;2023-05-10T18:22:39;1.00;;;0.57;;
1651;SDS011;823;49.028;8.454;2023-05-10T18:27:40;1.65;;;0.60;;
1651;SDS011;823;49.028;8.454;2023-05-10T18:32:40;3.15;;;0.93;;
1651;SDS011;823;49.028;8.454;2023-05-10T18:37:40;3.47;;;1.53;;
1651;SDS011;823;49.028;8.454;2023-05-10T18:42:41;0.90;;;0.60;;
1651;SDS011;823;49.028;8.454;2023-05-10T18:47:41;1.33;;;0.97;;
1651;SDS011;823;49.028;8.454;2023-05-10T18:52:42;2.23;;;0.97;;
1651;SDS011;823;49.028;8.454;2023-05-10T18:57:42;4.30;;;0.87;;
1651;SDS011;823;49.028;8.454;2023-05-10T19:02:44;4.17;;;0.80;;
1651;SDS011;823;49.028;8.454;2023-05-10T19:07:44;1.70;;;0.60;;
1651;SDS011;823;49.028;8.454;2023-05-10T19:12:44;10.73;;;5.03;;
1651;SDS011;823;49.028;8.454;2023-05-10T19:17:45;1.15;;;0.70;;
1651;SDS011;823;49.028;8.454;2023-05-10T19:22:45;1.53;;;0.80;;
1651;SDS011;823;49.028;8.454;2023-05-10T19:27:45;5.43;;;0.83;;
1651;SDS011;823;49.028;8.454;2023-05-10T19:32:46;1.40;;;0.50;;
1651;SDS011;823;49.028;8.454;2023-05-10T19:37:46;1.93;;;1.00;;
1651;SDS011;823;49.028;8.454;2023-05-10T19:42:48;8.20;;;1.60;;
1651;SDS011;823;49.028;8.454;2023-05-10T19:47:48;1.40;;;0.90;;
1651;SDS011;823;49.028;8.454;2023-05-10T19:52:49;2.43;;;1.57;;
1651;SDS011;823;49.028;8.454;2023-05-10T19:57:50;1.90;;;0.73;;
1651;SDS011;823;49.028;8.454;2023-05-10T20:02:50;4.82;;;0.90;;
1651;SDS011;823;49.028;8.454;2023-05-10T20:07:51;1.80;;;0.93;;
1651;SDS011;823;49.028;8.454;2023-05-10T20:12:51;3.10;;;1.00;;
1651;SDS011;823;49.028;8.454;2023-05-10T20:17:52;2.60;;;1.13;;
1651;SDS011;823;49.028;8.454;2023-05-10T20:22:52;2.50;;;1.00;;
1651;SDS011;823;49.028;8.454;2023-05-10T20:27:53;1.40;;;0.90;;
1651;SDS011;823;49.028;8.454;2023-05-10T20:32:53;1.97;;;1.63;;
1651;SDS011;823;49.028;8.454;2023-05-10T20:37:53;1.85;;;1.08;;
1651;SDS011;823;49.028;8.454;2023-05-10T20:42:54;1.20;;;0.70;;
1651;SDS011;823;49.028;8.454;2023-05-10T20:47:54;2.23;;;0.80;;
1651;SDS011;823;49.028;8.454;2023-05-10T20:52:55;2.50;;;0.83;;
1651;SDS011;823;49.028;8.454;2023-05-10T20:57:55;1.87;;;0.83;;
1651;SDS011;823;49.028;8.454;2023-05-10T21:02:55;2.40;;;1.10;;
1651;SDS011;823;49.028;8.454;2023-05-10T21:07:56;1.83;;;0.73;;
1651;SDS011;823;49.028;8.454;2023-05-10T21:12:56;1.00;;;0.70;;
1651;SDS011;823;49.028;8.454;2023-05-10T21:17:56;4.20;;;0.80;;
1651;SDS011;823;49.028;8.454;2023-05-10T21:22:57;2.70;;;0.97;;
1651;SDS011;823;49.028;8.454;2023-05-10T21:27:57;1.30;;;0.70;;
1651;SDS011;823;49.028;8.454;2023-05-10T21:32:58;2.08;;;0.88;;
1651;SDS011;823;49.028;8.454;2023-05-10T21:37:58;2.10;;;0.90;;
1651;SDS011;823;49.028;8.454;2023-05-10T21:42:59;6.10;;;1.50;;
1651;SDS011;823;49.028;8.454;2023-05-10T21:47:59;1.30;;;1.00;;
1651;SDS011;823;49.028;8.454;2023-05-10T21:52:59;2.72;;;0.90;;
1651;SDS011;823;49.028;8.454;2023-05-10T21:58:00;2.27;;;1.47;;
1651;SDS011;823;49.028;8.454;2023-05-10T22:03:00;3.67;;;1.40;;
1651;SDS011;823;49.028;8.454;2023-05-10T22:08:01;2.23;;;1.60;;
1651;SDS011;823;49.028;8.454;2023-05-10T22:13:01;1.83;;;1.13;;
1651;SDS011;823;49.028;8.454;2023-05-10T22:18:02;2.27;;;0.73;;
1651;SDS011;823;49.028;8.454;2023-05-10T22:23:02;1.23;;;0.80;;
1651;SDS011;823;49.028;8.454;2023-05-10T22:28:03;10.40;;;0.93;;
1651;SDS011;823;49.028;8.454;2023-05-10T22:33:03;1.60;;;0.70;;
1651;SDS011;823;49.028;8.454;2023-05-10T22:38:03;1.20;;;0.50;;
1651;SDS011;823;49.028;8.454;2023-05-10T22:43:04;1.00;;;0.60;;
1651;SDS011;823;49.028;8.454;2023-05-10T22:48:04;3.37;;;1.00;;
1651;SDS011;823;49.028;8.454;2023-05-10T22:53:05;1.30;;;0.67;;
1651;SDS011;823;49.028;8.454;2023-05-10T22:58:06;1.03;;;0.60;;
1651;SDS011;823;49.028;8.454;2023-05-10T23:03:06;1.30;;;0.83;;
1651;SDS011;823;49.028;8.454;2023-05-10T23:08:07;1.10;;;0.80;;
1651;SDS011;823;49.028;8.454;2023-05-10T23:13:07;2.60;;;0.90;;
1651;SDS011;823;49.028;8.454;2023-05-10T23:18:07;2.63;;;0.60;;
1651;SDS011;823;49.028;8.454;2023-05-10T23:23:09;1.73;;;0.80;;
1651;SDS011;823;49.028;8.454;2023-05-10T23:28:09;4.70;;;1.10;;
1651;SDS011;823;49.028;8.454;2023-05-10T23:33:10;1.30;;;0.70;;
1651;SDS011;823;49.028;8.454;2023-05-10T23:38:10;2.23;;;1.00;;
1651;SDS011;823;49.028;8.454;2023-05-10T23:43:11;2.20;;;1.00;;
1651;SDS011;823;49.028;8.454;2023-05-10T23:48:13;1.70;;;0.90;;
1651;SDS011;823;49.028;8.454;2023-05-10T23:53:14;1.20;;;1.00;;
1651;SDS011;823;49.028;8.454;2023-05-10T23:58:14;2.00;;;1.10;;
